sensor_id;sensor_type;location;lat;lon;timestamp;P1;P2;P0
76784;PMS7003;66893;44.316;0.092;2023-06-19T00:00:01;14.50;13.75;10.00
76784;PMS7003;66893;44.316;0.092;2023-06-19T00:02:32;14.00;14.00;9.25
76784;PMS7003;66893;44.316;0.092;2023-06-19T00:04:57;15.75;13.75;9.00
76784;PMS7003;66893;44.316;0.092;2023-06-19T00:07:23;12.25;12.25;10.00
76784;PMS7003;66893;44.316;0.092;2023-06-19T00:09:48;11.25;10.00;7.25
76784;PMS7003;66893;44.316;0.092;2023-06-19T00:12:14;11.75;11.25;8.00
76784;PMS7003;66893;44.316;0.092;2023-06-19T00:14:39;15.25;14.25;10.00
76784;PMS7003;66893;44.316;0.092;2023-06-19T00:17:05;15.00;14.50;10.25
76784;PMS7003;66893;44.316;0.092;2023-06-19T00:19:32;13.00;13.00;10.50
76784;PMS7003;66893;44.316;0.092;2023-06-19T00:22:01;12.25;11.50;9.00
76784;PMS7003;66893;44.316;0.092;2023-06-19T00:24:28;15.25;15.25;11.00
76784;PMS7003;66893;44.316;0.092;2023-06-19T00:26:53;15.50;13.25;9.75
76784;PMS7003;66893;44.316;0.092;2023-06-19T00:29:19;11.00;11.00;8.75
76784;PMS7003;66893;44.316;0.092;2023-06-19T00:31:44;14.75;13.25;10.50
76784;PMS7003;66893;44.316;0.092;2023-06-19T00:34:10;12.25;12.00;9.75
76784;PMS7003;66893;44.316;0.092;2023-06-19T00:36:35;15.50;14.75;10.00
76784;PMS7003;66893;44.316;0.092;2023-06-19T00:39:06;12.00;12.00;9.75
76784;PMS7003;66893;44.316;0.092;2023-06-19T00:41:33;15.00;13.00;10.00
76784;PMS7003;66893;44.316;0.092;2023-06-19T00:44:00;14.75;14.75;9.25
76784;PMS7003;66893;44.316;0.092;2023-06-19T00:46:26;14.25;12.00;9.00
76784;PMS7003;66893;44.316;0.092;2023-06-19T00:48:51;12.25;12.00;9.25
76784;PMS7003;66893;44.316;0.092;2023-06-19T00:51:17;13.00;11.75;10.00
76784;PMS7003;66893;44.316;0.092;2023-06-19T00:53:42;13.50;13.50;9.75
76784;PMS7003;66893;44.316;0.092;2023-06-19T00:56:08;13.00;11.00;9.00
76784;PMS7003;66893;44.316;0.092;2023-06-19T00:58:33;10.00;10.00;9.25
76784;PMS7003;66893;44.316;0.092;2023-06-19T01:01:00;13.50;11.75;9.00
76784;PMS7003;66893;44.316;0.092;2023-06-19T01:03:26;14.75;14.25;11.00
76784;PMS7003;66893;44.316;0.092;2023-06-19T01:05:51;12.50;10.75;8.75
76784;PMS7003;66893;44.316;0.092;2023-06-19T01:11:15;14.50;14.00;10.00
76784;PMS7003;66893;44.316;0.092;2023-06-19T01:13:55;17.75;15.50;9.00
76784;PMS7003;66893;44.316;0.092;2023-06-19T01:16:25;12.25;11.00;9.00
76784;PMS7003;66893;44.316;0.092;2023-06-19T01:18:51;11.50;11.50;9.00
76784;PMS7003;66893;44.316;0.092;2023-06-19T01:21:18;14.00;13.00;10.25
76784;PMS7003;66893;44.316;0.092;2023-06-19T01:23:44;15.25;14.50;11.00
76784;PMS7003;66893;44.316;0.092;2023-06-19T01:26:11;16.50;14.75;9.50
76784;PMS7003;66893;44.316;0.092;2023-06-19T01:28:37;11.75;10.25;8.50
76784;PMS7003;66893;44.316;0.092;2023-06-19T01:34:02;13.50;13.50;10.25
76784;PMS7003;66893;44.316;0.092;2023-06-19T01:36:31;12.50;12.50;9.00
76784;PMS7003;66893;44.316;0.092;2023-06-19T01:38:57;17.00;12.00;8.00
76784;PMS7003;66893;44.316;0.092;2023-06-19T01:41:24;13.50;11.25;8.50
76784;PMS7003;66893;44.316;0.092;2023-06-19T01:43:51;13.50;13.00;10.00
76784;PMS7003;66893;44.316;0.092;2023-06-19T01:46:17;14.75;13.00;10.25
76784;PMS7003;66893;44.316;0.092;2023-06-19T01:48:43;15.50;12.75;10.50
76784;PMS7003;66893;44.316;0.092;2023-06-19T01:51:08;12.00;11.25;8.50
76784;PMS7003;66893;44.316;0.092;2023-06-19T01:53:34;18.50;15.25;10.25
76784;PMS7003;66893;44.316;0.092;2023-06-19T01:56:00;16.75;14.50;10.00
76784;PMS7003;66893;44.316;0.092;2023-06-19T01:58:26;14.75;11.50;9.00
76784;PMS7003;66893;44.316;0.092;2023-06-19T02:00:51;14.50;12.75;9.25
76784;PMS7003;66893;44.316;0.092;2023-06-19T02:03:17;14.25;14.25;10.25
76784;PMS7003;66893;44.316;0.092;2023-06-19T02:05:42;15.50;11.50;8.50
76784;PMS7003;66893;44.316;0.092;2023-06-19T02:08:08;12.75;12.00;9.50
76784;PMS7003;66893;44.316;0.092;2023-06-19T02:10:33;14.75;13.25;10.00
76784;PMS7003;66893;44.316;0.092;2023-06-19T02:12:59;14.25;13.25;9.50
76784;PMS7003;66893;44.316;0.092;2023-06-19T02:15:25;13.75;13.00;10.75
76784;PMS7003;66893;44.316;0.092;2023-06-19T02:17:50;16.25;14.50;10.75
76784;PMS7003;66893;44.316;0.092;2023-06-19T02:20:20;14.75;11.00;9.00
76784;PMS7003;66893;44.316;0.092;2023-06-19T02:22:46;15.25;14.75;10.75
76784;PMS7003;66893;44.316;0.092;2023-06-19T02:25:11;12.75;12.75;10.25
76784;PMS7003;66893;44.316;0.092;2023-06-19T02:27:37;14.75;14.25;9.50
76784;PMS7003;66893;44.316;0.092;2023-06-19T02:30:02;17.75;15.50;10.00
76784;PMS7003;66893;44.316;0.092;2023-06-19T02:32:29;17.25;13.25;10.25
76784;PMS7003;66893;44.316;0.092;2023-06-19T02:34:55;13.00;13.00;8.50
76784;PMS7003;66893;44.316;0.092;2023-06-19T02:37:20;13.00;12.50;9.25
76784;PMS7003;66893;44.316;0.092;2023-06-19T02:39:46;14.25;14.25;11.25
76784;PMS7003;66893;44.316;0.092;2023-06-19T02:42:11;16.25;13.50;10.75
76784;PMS7003;66893;44.316;0.092;2023-06-19T02:44:37;14.50;14.50;10.50
76784;PMS7003;66893;44.316;0.092;2023-06-19T02:47:02;12.75;12.00;9.25
76784;PMS7003;66893;44.316;0.092;2023-06-19T02:49:28;16.75;13.75;10.00
76784;PMS7003;66893;44.316;0.092;2023-06-19T02:51:53;15.75;13.50;10.75
76784;PMS7003;66893;44.316;0.092;2023-06-19T02:54:18;15.00;14.50;10.75
76784;PMS7003;66893;44.316;0.092;2023-06-19T02:56:44;12.00;11.50;7.25
76784;PMS7003;66893;44.316;0.092;2023-06-19T02:59:09;14.00;13.50;9.75
76784;PMS7003;66893;44.316;0.092;2023-06-19T03:01:35;16.75;16.25;11.00
76784;PMS7003;66893;44.316;0.092;2023-06-19T03:04:00;16.00;12.75;9.75
76784;PMS7003;66893;44.316;0.092;2023-06-19T03:06:26;15.00;13.75;9.50
76784;PMS7003;66893;44.316;0.092;2023-06-19T03:08:51;15.25;14.50;10.00
76784;PMS7003;66893;44.316;0.092;2023-06-19T03:11:17;16.75;13.50;10.50
76784;PMS7003;66893;44.316;0.092;2023-06-19T03:13:52;15.75;13.75;10.50
76784;PMS7003;66893;44.316;0.092;2023-06-19T03:16:19;15.25;14.00;10.00
76784;PMS7003;66893;44.316;0.092;2023-06-19T03:18:46;8.75;8.25;5.50
76784;PMS7003;66893;44.316;0.092;2023-06-19T03:21:12;14.25;13.00;8.75
76784;PMS7003;66893;44.316;0.092;2023-06-19T03:23:38;14.75;13.25;9.25
76784;PMS7003;66893;44.316;0.092;2023-06-19T03:26:03;16.25;14.50;10.25
76784;PMS7003;66893;44.316;0.092;2023-06-19T03:28:29;14.25;13.50;10.00
76784;PMS7003;66893;44.316;0.092;2023-06-19T03:30:54;15.00;13.50;9.00
76784;PMS7003;66893;44.316;0.092;2023-06-19T03:33:20;13.25;13.00;10.00
76784;PMS7003;66893;44.316;0.092;2023-06-19T03:35:45;13.75;10.75;8.75
76784;PMS7003;66893;44.316;0.092;2023-06-19T03:38:11;12.00;11.25;8.50
76784;PMS7003;66893;44.316;0.092;2023-06-19T03:40:36;13.50;12.00;8.50
76784;PMS7003;66893;44.316;0.092;2023-06-19T03:43:02;14.25;12.25;8.75
76784;PMS7003;66893;44.316;0.092;2023-06-19T03:45:27;10.75;10.25;7.75
76784;PMS7003;66893;44.316;0.092;2023-06-19T03:47:53;12.50;10.25;8.00
76784;PMS7003;66893;44.316;0.092;2023-06-19T03:50:18;12.25;11.25;8.50
76784;PMS7003;66893;44.316;0.092;2023-06-19T03:52:44;11.50;11.50;9.00
76784;PMS7003;66893;44.316;0.092;2023-06-19T03:55:10;10.75;10.75;8.25
76784;PMS7003;66893;44.316;0.092;2023-06-19T03:57:35;16.00;13.50;9.75
76784;PMS7003;66893;44.316;0.092;2023-06-19T04:00:01;10.25;9.75;8.75
76784;PMS7003;66893;44.316;0.092;2023-06-19T04:02:26;11.25;11.25;8.00
76784;PMS7003;66893;44.316;0.092;2023-06-19T04:04:52;10.75;9.50;7.00
76784;PMS7003;66893;44.316;0.092;2023-06-19T04:07:18;13.00;10.75;8.50
76784;PMS7003;66893;44.316;0.092;2023-06-19T04:09:44;13.50;11.00;9.00
76784;PMS7003;66893;44.316;0.092;2023-06-19T04:12:09;7.50;7.50;6.25
76784;PMS7003;66893;44.316;0.092;2023-06-19T04:14:35;16.25;11.00;7.50
76784;PMS7003;66893;44.316;0.092;2023-06-19T04:17:00;10.50;10.50;9.25
76784;PMS7003;66893;44.316;0.092;2023-06-19T04:19:26;11.75;9.50;8.00
76784;PMS7003;66893;44.316;0.092;2023-06-19T04:21:51;10.25;9.75;7.75
76784;PMS7003;66893;44.316;0.092;2023-06-19T04:24:16;13.50;11.50;8.75
76784;PMS7003;66893;44.316;0.092;2023-06-19T04:26:42;9.00;9.00;8.00
76784;PMS7003;66893;44.316;0.092;2023-06-19T04:29:07;13.75;11.50;8.25
76784;PMS7003;66893;44.316;0.092;2023-06-19T04:31:33;15.00;13.75;8.75
76784;PMS7003;66893;44.316;0.092;2023-06-19T04:34:05;12.00;12.00;8.00
76784;PMS7003;66893;44.316;0.092;2023-06-19T04:36:31;10.75;10.75;7.25
76784;PMS7003;66893;44.316;0.092;2023-06-19T04:38:56;13.50;13.25;10.00
76784;PMS7003;66893;44.316;0.092;2023-06-19T04:41:23;12.00;11.75;9.00
76784;PMS7003;66893;44.316;0.092;2023-06-19T04:43:48;13.25;11.50;8.75
76784;PMS7003;66893;44.316;0.092;2023-06-19T04:46:14;12.00;10.25;8.25
76784;PMS7003;66893;44.316;0.092;2023-06-19T04:48:45;8.75;8.50;7.50
76784;PMS7003;66893;44.316;0.092;2023-06-19T04:51:18;12.25;11.50;8.50
76784;PMS7003;66893;44.316;0.092;2023-06-19T04:53:47;11.25;11.25;7.75
76784;PMS7003;66893;44.316;0.092;2023-06-19T04:56:13;12.50;12.50;8.75
76784;PMS7003;66893;44.316;0.092;2023-06-19T04:58:39;11.25;10.75;8.00
76784;PMS7003;66893;44.316;0.092;2023-06-19T05:01:13;10.00;10.00;7.00
76784;PMS7003;66893;44.316;0.092;2023-06-19T05:03:39;11.25;11.00;8.50
76784;PMS7003;66893;44.316;0.092;2023-06-19T05:06:05;13.50;12.25;9.00
76784;PMS7003;66893;44.316;0.092;2023-06-19T05:08:30;12.75;11.25;9.00
76784;PMS7003;66893;44.316;0.092;2023-06-19T05:10:56;15.75;15.50;10.75
76784;PMS7003;66893;44.316;0.092;2023-06-19T05:13:23;12.00;11.00;7.75
76784;PMS7003;66893;44.316;0.092;2023-06-19T05:15:49;9.25;9.25;7.25
76784;PMS7003;66893;44.316;0.092;2023-06-19T05:18:15;13.50;13.50;9.00
76784;PMS7003;66893;44.316;0.092;2023-06-19T05:20:41;13.00;11.25;9.00
76784;PMS7003;66893;44.316;0.092;2023-06-19T05:23:07;11.25;11.25;9.50
76784;PMS7003;66893;44.316;0.092;2023-06-19T05:25:32;12.50;12.50;9.00
76784;PMS7003;66893;44.316;0.092;2023-06-19T05:27:58;13.50;12.00;8.75
76784;PMS7003;66893;44.316;0.092;2023-06-19T05:30:23;11.50;11.50;8.00
76784;PMS7003;66893;44.316;0.092;2023-06-19T05:32:48;13.75;11.25;9.00
76784;PMS7003;66893;44.316;0.092;2023-06-19T05:35:14;11.75;10.25;7.00
76784;PMS7003;66893;44.316;0.092;2023-06-19T05:37:40;13.50;12.50;8.25
76784;PMS7003;66893;44.316;0.092;2023-06-19T05:40:08;15.50;13.75;8.25
76784;PMS7003;66893;44.316;0.092;2023-06-19T05:42:34;14.00;11.25;7.75
76784;PMS7003;66893;44.316;0.092;2023-06-19T05:45:00;16.00;12.50;9.00
76784;PMS7003;66893;44.316;0.092;2023-06-19T05:47:25;12.25;10.75;8.75
76784;PMS7003;66893;44.316;0.092;2023-06-19T05:49:51;11.50;11.00;6.25
76784;PMS7003;66893;44.316;0.092;2023-06-19T05:52:16;13.00;10.00;7.75
76784;PMS7003;66893;44.316;0.092;2023-06-19T05:54:42;14.00;13.25;9.00
76784;PMS7003;66893;44.316;0.092;2023-06-19T05:57:07;10.75;10.75;7.50
76784;PMS7003;66893;44.316;0.092;2023-06-19T05:59:33;14.75;13.25;8.25
76784;PMS7003;66893;44.316;0.092;2023-06-19T06:01:58;14.50;13.25;8.50
76784;PMS7003;66893;44.316;0.092;2023-06-19T06:04:25;11.50;11.50;8.00
76784;PMS7003;66893;44.316;0.092;2023-06-19T06:06:50;11.75;11.75;8.50
76784;PMS7003;66893;44.316;0.092;2023-06-19T06:09:15;14.75;12.25;10.00
76784;PMS7003;66893;44.316;0.092;2023-06-19T06:11:41;13.25;11.50;9.00
76784;PMS7003;66893;44.316;0.092;2023-06-19T06:14:07;11.00;10.50;7.50
76784;PMS7003;66893;44.316;0.092;2023-06-19T06:16:32;15.00;13.50;8.75
76784;PMS7003;66893;44.316;0.092;2023-06-19T06:18:58;14.50;12.00;8.75
76784;PMS7003;66893;44.316;0.092;2023-06-19T06:21:24;10.50;10.00;7.00
76784;PMS7003;66893;44.316;0.092;2023-06-19T06:23:49;12.00;11.00;8.00
76784;PMS7003;66893;44.316;0.092;2023-06-19T06:26:15;12.00;12.00;9.00
76784;PMS7003;66893;44.316;0.092;2023-06-19T06:28:40;15.50;13.00;11.00
76784;PMS7003;66893;44.316;0.092;2023-06-19T06:31:06;13.75;13.00;9.50
76784;PMS7003;66893;44.316;0.092;2023-06-19T06:33:32;17.00;16.75;10.50
76784;PMS7003;66893;44.316;0.092;2023-06-19T06:35:57;20.75;16.50;13.00
76784;PMS7003;66893;44.316;0.092;2023-06-19T06:38:24;21.00;19.00;13.50
76784;PMS7003;66893;44.316;0.092;2023-06-19T06:40:49;18.00;15.50;11.50
76784;PMS7003;66893;44.316;0.092;2023-06-19T06:43:15;17.25;16.50;12.25
76784;PMS7003;66893;44.316;0.092;2023-06-19T06:45:41;16.50;16.50;11.75
76784;PMS7003;66893;44.316;0.092;2023-06-19T06:48:07;16.50;15.00;12.50
76784;PMS7003;66893;44.316;0.092;2023-06-19T06:50:33;18.75;14.75;11.00
76784;PMS7003;66893;44.316;0.092;2023-06-19T06:52:59;19.00;15.50;10.00
76784;PMS7003;66893;44.316;0.092;2023-06-19T06:55:25;18.25;15.50;12.25
76784;PMS7003;66893;44.316;0.092;2023-06-19T06:57:50;15.00;13.25;10.75
76784;PMS7003;66893;44.316;0.092;2023-06-19T07:00:15;16.50;15.50;10.00
76784;PMS7003;66893;44.316;0.092;2023-06-19T07:02:43;16.75;15.25;9.50
76784;PMS7003;66893;44.316;0.092;2023-06-19T07:05:09;17.00;13.50;9.25
76784;PMS7003;66893;44.316;0.092;2023-06-19T07:07:35;13.25;13.25;9.00
76784;PMS7003;66893;44.316;0.092;2023-06-19T07:10:01;15.75;13.25;10.00
76784;PMS7003;66893;44.316;0.092;2023-06-19T07:12:27;15.25;11.75;9.25
76784;PMS7003;66893;44.316;0.092;2023-06-19T07:14:53;12.75;11.00;8.25
76784;PMS7003;66893;44.316;0.092;2023-06-19T07:17:19;11.00;10.50;8.00
76784;PMS7003;66893;44.316;0.092;2023-06-19T07:19:44;13.50;11.75;7.25
76784;PMS7003;66893;44.316;0.092;2023-06-19T07:22:09;14.50;11.75;8.00
76784;PMS7003;66893;44.316;0.092;2023-06-19T07:24:35;11.25;11.00;7.00
76784;PMS7003;66893;44.316;0.092;2023-06-19T07:27:01;11.25;9.75;6.50
76784;PMS7003;66893;44.316;0.092;2023-06-19T07:29:26;10.25;10.25;8.00
76784;PMS7003;66893;44.316;0.092;2023-06-19T07:31:52;14.75;13.25;8.00
76784;PMS7003;66893;44.316;0.092;2023-06-19T07:34:17;9.25;8.25;6.25
76784;PMS7003;66893;44.316;0.092;2023-06-19T07:36:43;10.75;10.00;7.00
76784;PMS7003;66893;44.316;0.092;2023-06-19T07:39:09;8.50;8.50;6.50
76784;PMS7003;66893;44.316;0.092;2023-06-19T07:41:35;9.50;9.00;7.00
76784;PMS7003;66893;44.316;0.092;2023-06-19T07:44:00;8.50;8.50;6.50
76784;PMS7003;66893;44.316;0.092;2023-06-19T07:46:26;10.25;10.25;8.00
76784;PMS7003;66893;44.316;0.092;2023-06-19T07:48:51;7.25;7.25;5.25
76784;PMS7003;66893;44.316;0.092;2023-06-19T07:51:17;11.25;10.50;7.50
76784;PMS7003;66893;44.316;0.092;2023-06-19T07:53:42;11.00;10.00;7.00
76784;PMS7003;66893;44.316;0.092;2023-06-19T07:56:08;10.50;8.75;6.50
76784;PMS7003;66893;44.316;0.092;2023-06-19T07:58:34;16.00;10.75;8.25
76784;PMS7003;66893;44.316;0.092;2023-06-19T08:01:00;11.75;9.50;7.00
76784;PMS7003;66893;44.316;0.092;2023-06-19T08:03:26;10.75;9.00;6.75
76784;PMS7003;66893;44.316;0.092;2023-06-19T08:05:52;11.25;9.00;6.75
76784;PMS7003;66893;44.316;0.092;2023-06-19T08:08:17;10.25;10.25;7.25
76784;PMS7003;66893;44.316;0.092;2023-06-19T08:10:43;13.00;12.00;7.50
76784;PMS7003;66893;44.316;0.092;2023-06-19T08:13:09;10.25;9.50;7.25
76784;PMS7003;66893;44.316;0.092;2023-06-19T08:15:36;12.00;9.75;7.75
76784;PMS7003;66893;44.316;0.092;2023-06-19T08:18:02;11.50;8.25;4.50
76784;PMS7003;66893;44.316;0.092;2023-06-19T08:20:27;11.25;10.50;7.00
76784;PMS7003;66893;44.316;0.092;2023-06-19T08:22:53;11.50;11.50;8.00
76784;PMS7003;66893;44.316;0.092;2023-06-19T08:25:18;8.25;7.50;5.00
76784;PMS7003;66893;44.316;0.092;2023-06-19T08:27:44;10.25;8.75;6.50
76784;PMS7003;66893;44.316;0.092;2023-06-19T08:30:12;12.00;10.50;7.00
76784;PMS7003;66893;44.316;0.092;2023-06-19T08:32:38;10.00;9.00;6.00
76784;PMS7003;66893;44.316;0.092;2023-06-19T08:35:03;6.25;6.25;5.00
76784;PMS7003;66893;44.316;0.092;2023-06-19T08:37:29;9.25;8.00;5.25
76784;PMS7003;66893;44.316;0.092;2023-06-19T08:39:54;9.00;8.00;6.00
76784;PMS7003;66893;44.316;0.092;2023-06-19T08:42:23;14.00;8.25;6.50
76784;PMS7003;66893;44.316;0.092;2023-06-19T08:44:49;30.00;26.25;16.25
76784;PMS7003;66893;44.316;0.092;2023-06-19T08:47:14;15.00;12.50;9.25
76784;PMS7003;66893;44.316;0.092;2023-06-19T08:49:40;14.00;10.50;7.75
76784;PMS7003;66893;44.316;0.092;2023-06-19T08:52:05;10.00;8.00;6.00
76784;PMS7003;66893;44.316;0.092;2023-06-19T08:54:32;8.50;8.50;6.00
76784;PMS7003;66893;44.316;0.092;2023-06-19T08:57:01;13.25;11.25;8.25
76784;PMS7003;66893;44.316;0.092;2023-06-19T08:59:28;12.00;11.00;7.00
76784;PMS7003;66893;44.316;0.092;2023-06-19T09:01:56;7.50;7.50;6.00
76784;PMS7003;66893;44.316;0.092;2023-06-19T09:04:22;9.75;9.75;6.75
76784;PMS7003;66893;44.316;0.092;2023-06-19T09:06:52;8.50;7.50;5.50
76784;PMS7003;66893;44.316;0.092;2023-06-19T09:09:20;5.75;5.75;4.25
76784;PMS7003;66893;44.316;0.092;2023-06-19T09:12:02;7.75;6.00;5.00
76784;PMS7003;66893;44.316;0.092;2023-06-19T09:14:36;7.50;6.50;5.50
76784;PMS7003;66893;44.316;0.092;2023-06-19T09:17:03;5.50;5.00;4.25
76784;PMS7003;66893;44.316;0.092;2023-06-19T09:19:30;8.75;6.00;4.50
76784;PMS7003;66893;44.316;0.092;2023-06-19T09:22:03;7.25;5.50;4.50
76784;PMS7003;66893;44.316;0.092;2023-06-19T09:24:33;8.50;6.50;5.00
76784;PMS7003;66893;44.316;0.092;2023-06-19T09:27:33;9.00;6.00;4.50
76784;PMS7003;66893;44.316;0.092;2023-06-19T09:29:56;7.25;7.25;5.00
76784;PMS7003;66893;44.316;0.092;2023-06-19T09:32:23;6.50;6.00;4.25
76784;PMS7003;66893;44.316;0.092;2023-06-19T09:34:51;6.00;6.00;4.50
76784;PMS7003;66893;44.316;0.092;2023-06-19T09:37:27;6.50;6.25;5.00
76784;PMS7003;66893;44.316;0.092;2023-06-19T09:39:56;6.00;6.00;4.75
76784;PMS7003;66893;44.316;0.092;2023-06-19T09:42:29;7.75;6.00;5.00
76784;PMS7003;66893;44.316;0.092;2023-06-19T09:44:59;5.50;5.50;4.25
76784;PMS7003;66893;44.316;0.092;2023-06-19T09:47:29;9.00;6.50;5.75
76784;PMS7003;66893;44.316;0.092;2023-06-19T09:50:01;4.50;4.50;3.50
76784;PMS7003;66893;44.316;0.092;2023-06-19T09:52:28;6.50;5.25;3.25
76784;PMS7003;66893;44.316;0.092;2023-06-19T09:54:54;4.75;4.75;4.00
76784;PMS7003;66893;44.316;0.092;2023-06-19T09:57:20;4.50;4.00;3.50
76784;PMS7003;66893;44.316;0.092;2023-06-19T09:59:47;5.75;5.75;4.00
76784;PMS7003;66893;44.316;0.092;2023-06-19T10:02:15;5.25;5.25;4.25
76784;PMS7003;66893;44.316;0.092;2023-06-19T10:04:49;10.25;6.00;4.00
76784;PMS7003;66893;44.316;0.092;2023-06-19T10:07:17;4.00;3.25;3.00
76784;PMS7003;66893;44.316;0.092;2023-06-19T10:09:56;6.00;4.25;4.00
76784;PMS7003;66893;44.316;0.092;2023-06-19T10:15:14;4.00;4.00;2.75
76784;PMS7003;66893;44.316;0.092;2023-06-19T10:17:54;4.75;3.00;2.25
76784;PMS7003;66893;44.316;0.092;2023-06-19T10:22:58;3.50;2.50;1.75
76784;PMS7003;66893;44.316;0.092;2023-06-19T10:25:30;6.25;4.00;2.00
76784;PMS7003;66893;44.316;0.092;2023-06-19T10:28:00;3.75;3.75;3.00
76784;PMS7003;66893;44.316;0.092;2023-06-19T10:30:27;4.00;1.00;1.00
76784;PMS7003;66893;44.316;0.092;2023-06-19T10:32:54;5.00;4.50;4.00
76784;PMS7003;66893;44.316;0.092;2023-06-19T10:35:20;5.00;4.75;3.00
76784;PMS7003;66893;44.316;0.092;2023-06-19T10:37:46;5.00;3.50;2.50
76784;PMS7003;66893;44.316;0.092;2023-06-19T10:40:13;5.00;4.00;3.00
76784;PMS7003;66893;44.316;0.092;2023-06-19T10:42:41;5.00;5.00;4.00
76784;PMS7003;66893;44.316;0.092;2023-06-19T10:45:09;4.25;4.25;3.75
76784;PMS7003;66893;44.316;0.092;2023-06-19T10:47:37;3.25;3.00;3.00
76784;PMS7003;66893;44.316;0.092;2023-06-19T10:50:04;7.00;4.25;4.00
76784;PMS7003;66893;44.316;0.092;2023-06-19T10:52:34;4.00;4.00;3.00
76784;PMS7003;66893;44.316;0.092;2023-06-19T10:55:00;6.00;5.25;4.00
76784;PMS7003;66893;44.316;0.092;2023-06-19T10:57:31;5.00;5.00;3.50
76784;PMS7003;66893;44.316;0.092;2023-06-19T10:59:57;6.00;5.25;4.50
76784;PMS7003;66893;44.316;0.092;2023-06-19T11:02:24;7.00;5.75;4.00
76784;PMS7003;66893;44.316;0.092;2023-06-19T11:04:54;5.75;5.75;3.75
76784;PMS7003;66893;44.316;0.092;2023-06-19T11:07:21;5.00;4.00;3.00
76784;PMS7003;66893;44.316;0.092;2023-06-19T11:09:48;5.00;5.00;4.00
76784;PMS7003;66893;44.316;0.092;2023-06-19T11:12:20;4.00;4.00;3.50
76784;PMS7003;66893;44.316;0.092;2023-06-19T11:14:49;7.00;5.00;4.00
76784;PMS7003;66893;44.316;0.092;2023-06-19T11:17:15;5.75;3.25;3.00
76784;PMS7003;66893;44.316;0.092;2023-06-19T11:19:45;5.25;5.25;3.00
76784;PMS7003;66893;44.316;0.092;2023-06-19T11:22:11;8.00;5.00;3.25
76784;PMS7003;66893;44.316;0.092;2023-06-19T11:24:36;5.50;5.50;5.00
76784;PMS7003;66893;44.316;0.092;2023-06-19T11:27:13;5.00;5.00;4.00
76784;PMS7003;66893;44.316;0.092;2023-06-19T11:29:42;5.50;5.50;5.00
76784;PMS7003;66893;44.316;0.092;2023-06-19T11:32:08;5.50;4.00;3.00
76784;PMS7003;66893;44.316;0.092;2023-06-19T11:34:36;4.00;4.00;3.00
76784;PMS7003;66893;44.316;0.092;2023-06-19T11:37:14;5.00;5.00;3.25
76784;PMS7003;66893;44.316;0.092;2023-06-19T11:39:44;8.50;6.00;5.00
76784;PMS7003;66893;44.316;0.092;2023-06-19T11:42:10;4.50;4.00;3.00
76784;PMS7003;66893;44.316;0.092;2023-06-19T11:44:52;5.25;5.25;4.25
76784;PMS7003;66893;44.316;0.092;2023-06-19T11:47:21;6.00;6.00;4.75
76784;PMS7003;66893;44.316;0.092;2023-06-19T11:49:50;7.00;7.00;6.00
76784;PMS7003;66893;44.316;0.092;2023-06-19T11:52:16;9.00;7.00;6.00
76784;PMS7003;66893;44.316;0.092;2023-06-19T11:54:41;5.25;5.25;4.75
76784;PMS7003;66893;44.316;0.092;2023-06-19T11:57:08;6.50;6.00;5.00
76784;PMS7003;66893;44.316;0.092;2023-06-19T11:59:37;5.75;5.75;4.00
76784;PMS7003;66893;44.316;0.092;2023-06-19T12:02:04;7.25;5.75;4.25
76784;PMS7003;66893;44.316;0.092;2023-06-19T12:04:30;5.50;5.50;5.00
76784;PMS7003;66893;44.316;0.092;2023-06-19T12:06:55;5.50;5.50;4.00
76784;PMS7003;66893;44.316;0.092;2023-06-19T12:09:21;8.75;7.00;5.00
76784;PMS7003;66893;44.316;0.092;2023-06-19T12:11:46;6.75;6.00;6.00
76784;PMS7003;66893;44.316;0.092;2023-06-19T12:14:11;10.25;9.00;6.50
76784;PMS7003;66893;44.316;0.092;2023-06-19T12:16:38;8.75;8.00;6.00
76784;PMS7003;66893;44.316;0.092;2023-06-19T12:19:03;7.50;7.25;5.50
76784;PMS7003;66893;44.316;0.092;2023-06-19T12:21:29;8.00;6.00;5.00
76784;PMS7003;66893;44.316;0.092;2023-06-19T12:23:54;8.50;6.50;5.25
76784;PMS7003;66893;44.316;0.092;2023-06-19T12:26:20;7.25;7.25;6.00
76784;PMS7003;66893;44.316;0.092;2023-06-19T12:28:45;6.25;6.25;5.75
76784;PMS7003;66893;44.316;0.092;2023-06-19T12:31:11;7.75;7.75;5.75
76784;PMS7003;66893;44.316;0.092;2023-06-19T12:33:36;9.00;7.75;6.00
76784;PMS7003;66893;44.316;0.092;2023-06-19T12:36:08;7.50;7.00;6.25
76784;PMS7003;66893;44.316;0.092;2023-06-19T12:38:35;8.50;7.75;6.00
76784;PMS7003;66893;44.316;0.092;2023-06-19T12:41:02;9.75;7.75;6.00
76784;PMS7003;66893;44.316;0.092;2023-06-19T12:43:27;10.00;9.00;6.25
76784;PMS7003;66893;44.316;0.092;2023-06-19T12:45:53;10.00;10.00;6.50
76784;PMS7003;66893;44.316;0.092;2023-06-19T12:48:18;9.75;7.75;6.25
76784;PMS7003;66893;44.316;0.092;2023-06-19T12:50:44;8.50;6.75;5.00
76784;PMS7003;66893;44.316;0.092;2023-06-19T12:53:09;8.25;8.00;5.50
76784;PMS7003;66893;44.316;0.092;2023-06-19T12:55:36;8.25;6.75;5.75
76784;PMS7003;66893;44.316;0.092;2023-06-19T12:58:02;7.25;7.25;5.25
76784;PMS7003;66893;44.316;0.092;2023-06-19T13:00:27;8.25;8.25;6.00
76784;PMS7003;66893;44.316;0.092;2023-06-19T13:02:52;9.00;9.00;7.00
76784;PMS7003;66893;44.316;0.092;2023-06-19T13:05:18;7.25;7.25;5.00
76784;PMS7003;66893;44.316;0.092;2023-06-19T13:07:43;7.50;6.25;4.25
76784;PMS7003;66893;44.316;0.092;2023-06-19T13:10:10;7.50;6.00;5.25
76784;PMS7003;66893;44.316;0.092;2023-06-19T13:12:35;10.50;6.25;5.25
76784;PMS7003;66893;44.316;0.092;2023-06-19T13:15:01;6.50;6.50;5.00
76784;PMS7003;66893;44.316;0.092;2023-06-19T13:17:27;7.50;6.75;5.00
76784;PMS7003;66893;44.316;0.092;2023-06-19T13:19:52;9.00;7.75;5.50
76784;PMS7003;66893;44.316;0.092;2023-06-19T13:22:18;6.00;6.00;4.75
76784;PMS7003;66893;44.316;0.092;2023-06-19T13:24:43;7.25;7.00;5.50
76784;PMS7003;66893;44.316;0.092;2023-06-19T13:27:08;5.25;5.25;4.25
76784;PMS7003;66893;44.316;0.092;2023-06-19T13:29:34;7.75;7.50;5.00
76784;PMS7003;66893;44.316;0.092;2023-06-19T13:31:59;6.00;6.00;4.33
76784;PMS7003;66893;44.316;0.092;2023-06-19T13:34:25;5.50;5.00;4.25
76784;PMS7003;66893;44.316;0.092;2023-06-19T13:36:51;6.00;6.00;5.00
76784;PMS7003;66893;44.316;0.092;2023-06-19T13:39:16;8.75;6.00;5.00
76784;PMS7003;66893;44.316;0.092;2023-06-19T13:41:44;8.25;6.50;5.50
76784;PMS7003;66893;44.316;0.092;2023-06-19T13:44:10;6.00;5.75;4.00
76784;PMS7003;66893;44.316;0.092;2023-06-19T13:46:37;5.25;5.25;4.00
76784;PMS7003;66893;44.316;0.092;2023-06-19T13:49:02;6.25;6.25;5.25
76784;PMS7003;66893;44.316;0.092;2023-06-19T13:51:28;7.25;5.50;4.50
76784;PMS7003;66893;44.316;0.092;2023-06-19T13:53:53;5.00;5.00;3.75
76784;PMS7003;66893;44.316;0.092;2023-06-19T13:56:19;5.25;5.25;4.00
76784;PMS7003;66893;44.316;0.092;2023-06-19T13:58:45;5.00;5.00;3.00
76784;PMS7003;66893;44.316;0.092;2023-06-19T14:01:11;4.50;4.50;3.75
76784;PMS7003;66893;44.316;0.092;2023-06-19T14:03:37;8.50;7.25;5.25
76784;PMS7003;66893;44.316;0.092;2023-06-19T14:06:06;7.75;6.50;5.00
76784;PMS7003;66893;44.316;0.092;2023-06-19T14:08:32;9.75;6.00;4.50
76784;PMS7003;66893;44.316;0.092;2023-06-19T14:10:58;6.50;6.50;5.00
76784;PMS7003;66893;44.316;0.092;2023-06-19T14:13:24;7.75;7.25;5.25